Time;durP1;ratioP1;P1;durP2;ratioP2;P2;SDS_P1;SDS_P2;PMS_P1;PMS_P2;Temp;Humidity;BMP_temperature;BMP_pressure;BME280_temperature;BME280_humidity;BME280_pressure;Samples;Min_cycle;Max_cycle;Signal;HPM_P1;HPM_P2
2023/08/29 00:00:47;;;;;;;16.92;4.25;;;9.70;99.90;;;;;;5052420;28;20044;-26
2023/08/29 00:03:12;;;;;;;8.63;5.25;;;9.60;99.90;;;;;;5053370;28;20096;-27
2023/08/29 00:05:38;;;;;;;17.60;4.97;;;9.70;99.90;;;;;;5052746;28;20052;-26
2023/08/29 00:08:05;;;;;;;66.97;7.07;;;9.70;99.90;;;;;;5053717;28;20037;-26
2023/08/29 00:10:31;;;;;;;83.25;7.43;;;9.60;99.90;;;;;;5036118;28;20056;-26
2023/08/29 00:12:57;;;;;;;32.08;5.85;;;9.70;99.90;;;;;;5053656;28;20522;-26
2023/08/29 00:15:23;;;;;;;6.72;3.53;;;9.50;99.90;;;;;;5053688;28;20512;-26
2023/08/29 00:17:48;;;;;;;8.75;3.15;;;9.50;99.90;;;;;;5053605;28;20049;-26
2023/08/29 00:20:14;;;;;;;101.82;7.03;;;9.40;99.90;;;;;;5053475;28;20048;-26
2023/08/29 00:22:40;;;;;;;217.65;11.07;;;9.40;99.90;;;;;;5054363;28;20130;-26
2023/08/29 00:25:07;;;;;;;27.63;4.97;;;9.40;99.90;;;;;;5053247;28;20517;-26
2023/08/29 00:27:32;;;;;;;5.53;3.42;;;9.40;99.90;;;;;;5054071;28;20124;-26
2023/08/29 00:29:58;;;;;;;8.25;4.53;;;9.30;99.90;;;;;;5053754;28;20120;-26
2023/08/29 00:32:24;;;;;;;65.05;10.02;;;9.40;99.90;;;;;;5053301;28;20553;-26
2023/08/29 00:34:49;;;;;;;12.32;5.95;;;9.40;99.90;;;;;;5053985;28;20045;-26
2023/08/29 00:37:15;;;;;;;19.48;7.13;;;9.40;99.90;;;;;;5053686;28;20509;-26
2023/08/29 00:39:41;;;;;;;51.83;9.85;;;9.40;99.90;;;;;;5052480;28;20479;-26
2023/08/29 00:42:06;;;;;;;12.57;5.80;;;9.40;99.90;;;;;;5052654;28;20525;-26
2023/08/29 00:44:32;;;;;;;182.45;12.77;;;9.50;99.90;;;;;;5052168;28;20055;-26
2023/08/29 00:46:58;;;;;;;101.82;8.52;;;9.50;99.90;;;;;;5053866;28;20459;-26
2023/08/29 00:49:27;;;;;;;148.77;12.32;;;9.40;99.90;;;;;;5054157;28;20052;-26
2023/08/29 00:51:53;;;;;;;300.90;16.75;;;9.40;99.90;;;;;;5053564;28;20045;-26
2023/08/29 00:54:20;;;;;;;106.72;7.88;;;9.50;99.90;;;;;;5053504;28;20498;-26
2023/08/29 00:56:47;;;;;;;104.65;8.32;;;9.50;99.90;;;;;;5052030;28;20077;-26
2023/08/29 00:59:13;;;;;;;125.50;8.30;;;9.40;99.90;;;;;;5053182;28;20053;-26
2023/08/29 01:01:39;;;;;;;289.75;12.95;;;9.50;99.90;;;;;;5056429;28;20041;-25
2023/08/29 01:04:05;;;;;;;181.77;11.32;;;9.50;99.90;;;;;;5057089;28;20242;-25
2023/08/29 01:06:32;;;;;;;217.13;13.82;;;9.50;99.90;;;;;;5057028;28;20084;-26
2023/08/29 01:08:59;;;;;;;291.90;11.80;;;9.40;99.90;;;;;;5056984;28;20415;-25
2023/08/29 01:11:37;;;;;;;158.25;7.60;;;9.40;99.90;;;;;;5056951;28;20045;-24
2023/08/29 01:14:09;;;;;;;144.65;8.73;;;9.30;99.90;;;;;;5055948;28;20063;-26
2023/08/29 01:16:38;;;;;;;;;;;9.40;99.90;;;;;;5057153;28;20440;-25
2023/08/29 01:19:14;;;;;;;189.23;10.45;;;9.30;99.90;;;;;;5057084;28;20297;-25
2023/08/29 01:21:49;;;;;;;233.18;12.15;;;9.30;99.90;;;;;;5056724;28;20091;-25
2023/08/29 01:24:29;;;;;;;206.35;11.05;;;9.40;99.90;;;;;;5057614;28;20139;-25
2023/08/29 01:26:56;;;;;;;251.25;10.55;;;9.50;99.90;;;;;;5055591;28;20045;-25
2023/08/29 01:29:23;;;;;;;261.92;10.00;;;9.40;99.90;;;;;;5057169;28;20110;-25
2023/08/29 01:31:50;;;;;;;325.05;11.57;;;9.50;99.90;;;;;;5056756;28;20137;-24
2023/08/29 01:34:16;;;;;;;205.27;8.70;;;9.50;99.90;;;;;;5056547;28;20142;-25
2023/08/29 01:36:43;;;;;;;285.98;11.32;;;9.30;99.90;;;;;;5056528;28;20059;-24
2023/08/29 01:39:09;;;;;;;284.30;10.55;;;9.40;99.90;;;;;;5055440;28;20056;-24
2023/08/29 01:41:35;;;;;;;161.40;7.35;;;9.30;99.90;;;;;;5056260;28;20120;-24
2023/08/29 01:44:04;;;;;;;84.85;5.57;;;9.30;99.90;;;;;;5056666;28;20536;-24
2023/08/29 01:46:30;;;;;;;39.67;5.40;;;9.20;99.90;;;;;;5056866;28;20119;-24
2023/08/29 01:49:01;;;;;;;178.02;10.45;;;9.20;99.90;;;;;;5056260;28;20041;-24
2023/08/29 01:51:27;;;;;;;129.98;12.10;;;9.00;99.90;;;;;;5056207;28;20437;-24
2023/08/29 01:53:53;;;;;;;97.63;10.25;;;9.20;99.90;;;;;;5055537;28;20057;-24
2023/08/29 01:56:22;;;;;;;13.82;5.18;;;9.10;99.90;;;;;;5055182;28;20067;-25
2023/08/29 01:58:52;;;;;;;26.73;7.85;;;9.30;99.90;;;;;;5055070;28;20405;-24
2023/08/29 02:01:18;;;;;;;35.72;8.43;;;9.30;99.90;;;;;;5055940;28;20041;-24
2023/08/29 02:03:43;;;;;;;194.85;12.80;;;9.40;99.90;;;;;;5056793;28;20103;-24
2023/08/29 02:06:09;;;;;;;135.90;10.48;;;9.40;99.90;;;;;;5056207;28;20569;-24
2023/08/29 02:08:36;;;;;;;120.53;11.23;;;9.20;99.90;;;;;;5055881;28;20428;-24
2023/08/29 02:11:01;;;;;;;48.83;8.60;;;9.30;99.90;;;;;;5055184;28;20055;-24
2023/08/29 02:13:27;;;;;;;24.52;9.27;;;9.30;99.90;;;;;;5055010;28;20127;-24
2023/08/29 02:15:53;;;;;;;15.07;8.07;;;9.50;99.90;;;;;;5055722;28;20052;-24
2023/08/29 02:18:18;;;;;;;19.35;8.18;;;9.40;99.90;;;;;;5055747;28;20049;-24
2023/08/29 02:20:44;;;;;;;15.38;7.80;;;9.50;99.90;;;;;;5054597;28;20051;-24
2023/08/29 02:23:10;;;;;;;16.00;8.02;;;9.50;99.90;;;;;;5055640;28;20044;-24
2023/08/29 02:25:35;;;;;;;12.38;7.20;;;9.40;99.90;;;;;;5055567;28;20052;-24
2023/08/29 02:28:01;;;;;;;12.45;6.63;;;9.40;99.90;;;;;;5056109;28;20048;-24
2023/08/29 02:30:27;;;;;;;13.18;6.93;;;9.30;99.90;;;;;;5055317;28;20065;-24
2023/08/29 02:32:52;;;;;;;14.60;7.22;;;9.50;99.90;;;;;;5054298;28;20052;-24
2023/08/29 02:35:18;;;;;;;11.70;6.20;;;9.50;99.90;;;;;;5055695;28;20049;-24
2023/08/29 02:37:44;;;;;;;10.48;5.60;;;9.50;99.90;;;;;;5055891;28;20364;-24
2023/08/29 02:40:10;;;;;;;9.75;5.20;;;9.40;99.90;;;;;;5054112;28;20070;-24
2023/08/29 02:42:36;;;;;;;9.88;4.75;;;9.50;99.90;;;;;;5037314;28;20044;-24
2023/08/29 02:45:04;;;;;;;10.20;4.90;;;9.20;99.90;;;;;;5054030;28;20084;-24
2023/08/29 02:47:30;;;;;;;10.43;5.40;;;9.20;99.90;;;;;;5055680;28;20044;-24
2023/08/29 02:49:55;;;;;;;11.27;5.35;;;9.20;99.90;;;;;;5053916;28;20071;-24
2023/08/29 02:52:21;;;;;;;12.60;7.20;;;9.30;99.90;;;;;;5054914;28;20092;-24
2023/08/29 02:54:47;;;;;;;14.98;6.47;;;9.30;99.90;;;;;;5054726;28;20040;-24
2023/08/29 02:57:13;;;;;;;10.30;6.82;;;9.30;99.90;;;;;;5054013;28;20092;-24
2023/08/29 02:59:39;;;;;;;15.98;7.72;;;9.10;99.90;;;;;;5054932;28;20080;-24
2023/08/29 03:02:05;;;;;;;12.57;7.15;;;9.20;99.90;;;;;;5037007;28;20053;-24
2023/08/29 03:04:31;;;;;;;15.70;8.73;;;9.20;99.90;;;;;;5054832;28;20049;-24
2023/08/29 03:06:57;;;;;;;12.18;7.28;;;9.20;99.90;;;;;;5037792;28;20056;-24
2023/08/29 03:09:22;;;;;;;8.85;5.22;;;9.20;99.90;;;;;;5055053;28;20142;-24
2023/08/29 03:11:48;;;;;;;15.30;7.22;;;9.20;99.90;;;;;;5054989;28;20052;-24
2023/08/29 03:14:14;;;;;;;8.20;4.40;;;9.20;99.90;;;;;;5055274;28;20068;-24
2023/08/29 03:16:40;;;;;;;5.90;3.80;;;9.20;99.90;;;;;;5054556;28;20089;-24
2023/08/29 03:19:06;;;;;;;5.88;3.85;;;9.20;99.90;;;;;;5054540;28;20084;-24
2023/08/29 03:21:32;;;;;;;6.20;3.55;;;9.00;99.90;;;;;;5053098;28;20048;-24
2023/08/29 03:23:58;;;;;;;5.38;3.53;;;9.10;99.90;;;;;;5054915;28;20049;-24
2023/08/29 03:26:23;;;;;;;5.75;4.07;;;9.00;99.90;;;;;;5054721;28;20048;-23
2023/08/29 03:28:49;;;;;;;5.57;3.55;;;9.10;99.90;;;;;;5054086;28;20601;-23
2023/08/29 03:31:17;;;;;;;6.97;3.78;;;9.00;99.90;;;;;;5054368;28;20053;-23
2023/08/29 03:33:44;;;;;;;12.35;3.65;;;8.90;99.90;;;;;;5054296;28;20049;-24
2023/08/29 03:36:10;;;;;;;5.07;2.83;;;9.00;99.90;;;;;;5054508;28;20041;-23
2023/08/29 03:38:38;;;;;;;6.97;2.85;;;8.80;99.90;;;;;;5054202;28;20045;-23
2023/08/29 03:41:04;;;;;;;5.15;2.95;;;9.00;99.90;;;;;;5054199;28;20087;-24
2023/08/29 03:43:31;;;;;;;3.45;2.50;;;8.80;99.90;;;;;;5054136;28;20047;-23
2023/08/29 03:46:04;;;;;;;6.70;2.67;;;9.00;99.90;;;;;;5054347;28;20099;-23
2023/08/29 03:48:30;;;;;;;3.05;2.47;;;8.80;99.90;;;;;;5053695;28;20446;-23
2023/08/29 03:50:58;;;;;;;5.63;3.70;;;9.00;99.90;;;;;;5054817;28;20041;-24
2023/08/29 03:53:24;;;;;;;24.58;5.22;;;8.80;99.90;;;;;;5054265;28;20502;-23
2023/08/29 03:55:50;;;;;;;108.75;10.52;;;8.90;99.90;;;;;;5053907;28;20129;-24
2023/08/29 03:58:16;;;;;;;129.35;11.43;;;9.00;99.90;;;;;;5053925;28;20463;-23
2023/08/29 04:00:42;;;;;;;140.35;11.30;;;8.90;99.90;;;;;;5053797;28;20530;-24
2023/08/29 04:03:08;;;;;;;139.30;8.75;;;8.90;99.90;;;;;;5053782;28;20052;-24
2023/08/29 04:05:37;;;;;;;82.57;6.15;;;9.10;99.90;;;;;;5054609;28;20041;-24
2023/08/29 04:08:05;;;;;;;86.93;4.55;;;8.70;99.90;;;;;;5053708;28;20044;-23
2023/08/29 04:10:37;;;;;;;24.98;1.88;;;8.70;99.90;;;;;;5053716;28;20045;-24
2023/08/29 04:13:03;;;;;;;2.35;1.30;;;8.40;99.90;;;;;;5036853;28;20060;-23
2023/08/29 04:15:29;;;;;;;1.90;1.30;;;8.20;99.90;;;;;;5053259;28;20041;-23
2023/08/29 04:17:55;;;;;;;3.50;2.38;;;8.30;99.90;;;;;;5053643;28;20518;-23
2023/08/29 04:20:21;;;;;;;9.02;3.20;;;8.10;99.90;;;;;;5054168;28;20060;-23
2023/08/29 04:22:47;;;;;;;6.78;3.28;;;8.20;99.90;;;;;;5053614;28;20053;-23
2023/08/29 04:25:12;;;;;;;3.13;2.15;;;8.10;99.90;;;;;;5053805;28;20048;-23
2023/08/29 04:27:39;;;;;;;403.00;22.55;;;8.10;99.90;;;;;;5019330;28;20041;-23
2023/08/29 04:30:05;;;;;;;199.55;9.85;;;8.10;99.90;;;;;;5053543;28;20049;-23
2023/08/29 04:32:34;;;;;;;133.70;6.25;;;8.30;99.90;;;;;;5053299;28;20057;-23
2023/08/29 04:35:00;;;;;;;8.18;3.67;;;8.00;99.90;;;;;;5052954;28;20127;-23
2023/08/29 04:37:26;;;;;;;4.95;2.60;;;8.10;99.90;;;;;;5057582;28;20049;-23
2023/08/29 04:39:51;;;;;;;22.33;3.28;;;8.00;99.90;;;;;;5056401;28;20041;-23
2023/08/29 04:42:17;;;;;;;17.70;3.58;;;8.10;99.90;;;;;;5056346;28;20041;-23
2023/08/29 04:44:43;;;;;;;47.00;6.28;;;7.90;99.90;;;;;;5057515;28;20092;-23
2023/08/29 04:47:09;;;;;;;100.03;5.28;;;8.00;99.90;;;;;;5039543;28;20483;-23
2023/08/29 04:49:35;;;;;;;67.05;4.53;;;7.90;99.90;;;;;;5057330;28;20131;-23
2023/08/29 04:52:01;;;;;;;67.72;5.03;;;8.00;99.90;;;;;;5057317;28;20037;-23
2023/08/29 04:54:26;;;;;;;119.40;5.63;;;8.20;99.90;;;;;;5057315;28;20048;-23
2023/08/29 04:56:52;;;;;;;237.70;10.15;;;8.10;99.90;;;;;;5056133;28;20052;-23
2023/08/29 04:59:18;;;;;;;150.88;7.10;;;8.10;99.90;;;;;;5056765;28;20106;-23
2023/08/29 05:01:44;;;;;;;77.85;5.50;;;8.10;99.90;;;;;;5056483;28;20458;-23
2023/08/29 05:04:10;;;;;;;19.52;3.92;;;8.30;99.90;;;;;;5057177;28;20060;-23
2023/08/29 05:06:36;;;;;;;38.45;5.28;;;8.20;99.90;;;;;;5039510;28;20378;-23
2023/08/29 05:09:06;;;;;;;8.88;4.30;;;8.30;99.90;;;;;;5039530;28;20041;-23
2023/08/29 05:11:31;;;;;;;8.70;4.93;;;8.50;99.90;;;;;;5057274;28;20186;-24
2023/08/29 05:13:57;;;;;;;10.07;5.75;;;8.40;99.90;;;;;;5056963;28;20453;-23
2023/08/29 05:16:23;;;;;;;18.98;9.77;;;8.50;99.90;;;;;;5056933;28;20581;-23
2023/08/29 05:18:49;;;;;;;12.75;6.85;;;8.80;99.90;;;;;;5055667;28;20053;-23
2023/08/29 05:21:14;;;;;;;13.02;7.40;;;8.80;99.90;;;;;;5039393;28;20037;-24
2023/08/29 05:23:40;;;;;;;13.50;7.35;;;8.80;99.90;;;;;;5055604;28;20049;-24
2023/08/29 05:26:06;;;;;;;14.40;8.55;;;9.00;99.90;;;;;;5057235;28;20049;-24
2023/08/29 05:28:31;;;;;;;32.40;7.97;;;8.90;99.90;;;;;;5057220;28;20502;-24
2023/08/29 05:30:57;;;;;;;30.95;6.13;;;8.90;99.90;;;;;;5056419;28;20060;-24
2023/08/29 05:33:23;;;;;;;8.73;4.47;;;9.00;99.90;;;;;;5056926;28;20064;-24
2023/08/29 05:35:48;;;;;;;6.85;4.20;;;8.90;99.90;;;;;;5057361;28;20048;-24
2023/08/29 05:38:14;;;;;;;5.22;3.35;;;8.80;99.90;;;;;;5056526;28;20044;-23
2023/08/29 05:40:40;;;;;;;9.90;4.32;;;8.80;99.90;;;;;;5056528;28;20044;-24
2023/08/29 05:43:06;;;;;;;4.60;3.75;;;9.00;99.90;;;;;;5057185;28;20045;-24
2023/08/29 05:45:31;;;;;;;4.60;3.67;;;9.00;99.90;;;;;;5056114;28;20509;-24
2023/08/29 05:47:57;;;;;;;4.55;4.15;;;8.90;99.90;;;;;;5055002;28;20052;-24
2023/08/29 05:50:23;;;;;;;6.75;4.85;;;9.10;99.90;;;;;;5056305;28;20052;-24
2023/08/29 05:52:48;;;;;;;6.65;4.88;;;9.10;99.90;;;;;;5056247;28;20124;-24
2023/08/29 05:55:14;;;;;;;5.88;4.50;;;9.20;99.90;;;;;;5056169;28;20049;-24
2023/08/29 05:57:40;;;;;;;6.90;4.53;;;9.30;99.90;;;;;;5056406;28;20044;-24
2023/08/29 06:00:07;;;;;;;6.78;4.75;;;9.50;99.90;;;;;;5056687;28;20049;-24
2023/08/29 06:02:34;;;;;;;9.93;5.80;;;9.50;99.90;;;;;;5055349;28;20056;-24
2023/08/29 06:04:59;;;;;;;10.52;6.35;;;9.80;99.90;;;;;;5055055;28;20051;-24
2023/08/29 06:07:25;;;;;;;11.70;7.28;;;9.90;99.90;;;;;;5055937;28;20485;-24
2023/08/29 06:09:51;;;;;;;11.50;7.72;;;9.90;99.90;;;;;;5055182;28;20051;-24
2023/08/29 06:12:17;;;;;;;14.25;7.80;;;10.10;99.90;;;;;;5055529;28;20491;-24
2023/08/29 06:14:42;;;;;;;13.85;8.57;;;10.40;99.90;;;;;;5038305;28;20091;-24
2023/08/29 06:17:08;;;;;;;12.52;8.10;;;10.50;99.90;;;;;;5055738;28;20395;-24
2023/08/29 06:19:34;;;;;;;11.63;7.78;;;11.00;99.90;;;;;;5054549;28;20053;-24
2023/08/29 06:22:00;;;;;;;12.45;8.88;;;11.10;99.90;;;;;;5055640;28;20491;-24
2023/08/29 06:24:25;;;;;;;15.27;8.32;;;11.40;99.90;;;;;;5055889;28;20529;-24
2023/08/29 06:26:51;;;;;;;18.70;9.15;;;11.70;99.90;;;;;;5055429;28;20057;-24
2023/08/29 06:29:17;;;;;;;15.02;9.38;;;12.00;99.90;;;;;;5055803;28;20045;-24
2023/08/29 06:31:42;;;;;;;12.68;8.90;;;12.20;99.90;;;;;;5055278;28;20057;-24
2023/08/29 06:34:08;;;;;;;13.55;8.95;;;12.40;99.90;;;;;;5054742;28;20080;-24
2023/08/29 06:36:34;;;;;;;15.77;10.18;;;12.50;99.90;;;;;;5055646;28;20187;-25
2023/08/29 06:39:00;;;;;;;15.05;9.43;;;12.80;99.90;;;;;;5054407;28;20391;-24
2023/08/29 06:41:26;;;;;;;13.95;9.18;;;13.00;99.90;;;;;;5021522;28;20044;-24
2023/08/29 06:43:52;;;;;;;10.40;7.50;;;13.00;99.90;;;;;;5037966;28;20049;-24
2023/08/29 06:46:17;;;;;;;11.40;8.40;;;13.30;99.90;;;;;;5037344;28;20063;-24
2023/08/29 06:48:43;;;;;;;11.20;7.35;;;13.30;99.90;;;;;;5055171;28;20098;-24
2023/08/29 06:51:09;;;;;;;17.30;8.82;;;13.50;99.90;;;;;;5053945;28;20466;-24
2023/08/29 06:53:35;;;;;;;10.48;8.02;;;13.60;99.90;;;;;;5055072;28;20436;-25
2023/08/29 06:56:01;;;;;;;9.25;6.82;;;13.80;99.90;;;;;;5055025;28;20056;-24
2023/08/29 06:58:27;;;;;;;6.13;5.50;;;14.00;99.90;;;;;;5053077;28;20085;-24
2023/08/29 07:00:53;;;;;;;10.18;5.20;;;14.00;99.90;;;;;;5053801;28;20128;-24
2023/08/29 07:03:20;;;;;;;8.50;5.15;;;14.10;99.90;;;;;;5053614;28;20049;-25
2023/08/29 07:05:45;;;;;;;5.57;4.90;;;14.20;99.90;;;;;;5053702;28;20036;-25
2023/08/29 07:08:11;;;;;;;7.75;4.45;;;14.30;99.90;;;;;;5037240;28;20402;-24
2023/08/29 07:10:37;;;;;;;5.05;4.20;;;14.50;99.90;;;;;;5054734;28;20049;-25
2023/08/29 07:13:06;;;;;;;5.72;3.95;;;14.70;99.90;;;;;;5054736;28;20044;-26
2023/08/29 07:15:31;;;;;;;4.32;3.13;;;14.80;99.90;;;;;;5053416;28;20082;-26
2023/08/29 07:17:57;;;;;;;7.07;3.22;;;14.90;99.90;;;;;;5054626;28;20135;-26
2023/08/29 07:20:24;;;;;;;4.28;3.03;;;15.00;99.90;;;;;;5053462;28;20372;-26
2023/08/29 07:22:50;;;;;;;4.20;3.50;;;15.00;99.90;;;;;;5037603;28;20049;-26
2023/08/29 07:25:18;;;;;;;3.72;3.25;;;15.20;99.90;;;;;;5054483;28;20090;-26
2023/08/29 07:27:43;;;;;;;4.88;3.38;;;15.30;99.90;;;;;;5054393;28;20056;-26
2023/08/29 07:30:14;;;;;;;4.03;3.63;;;15.30;99.90;;;;;;5053199;28;20044;-26
2023/08/29 07:32:41;;;;;;;4.80;3.13;;;15.40;99.90;;;;;;5053840;28;20080;-26
2023/08/29 07:35:08;;;;;;;6.25;3.38;;;15.40;99.90;;;;;;5053332;28;20056;-26
2023/08/29 07:37:33;;;;;;;4.45;3.13;;;15.40;99.90;;;;;;5055061;28;20083;-26
2023/08/29 07:39:59;;;;;;;4.57;3.25;;;15.50;99.90;;;;;;5054246;28;20044;-26
2023/08/29 07:42:25;;;;;;;5.80;3.60;;;15.50;99.90;;;;;;5052822;28;20041;-26
2023/08/29 07:44:51;;;;;;;4.97;4.45;;;15.50;99.90;;;;;;5054134;28;20048;-26
2023/08/29 07:47:17;;;;;;;5.68;3.83;;;15.60;99.90;;;;;;5053171;28;20115;-27
2023/08/29 07:49:43;;;;;;;3.55;3.22;;;15.70;99.90;;;;;;5052930;28;20135;-26
2023/08/29 07:52:09;;;;;;;5.03;2.90;;;15.80;99.90;;;;;;5052771;28;20037;-26
2023/08/29 07:54:35;;;;;;;5.60;2.80;;;15.80;99.90;;;;;;5053984;28;20131;-26
2023/08/29 07:57:00;;;;;;;7.88;2.80;;;15.90;99.90;;;;;;5053982;28;20140;-26
2023/08/29 07:59:26;;;;;;;4.80;2.40;;;16.00;99.90;;;;;;5053535;28;20049;-26
2023/08/29 08:01:52;;;;;;;5.45;2.70;;;16.20;99.90;;;;;;5053807;28;20447;-26
2023/08/29 08:04:18;;;;;;;3.60;2.33;;;16.40;99.90;;;;;;5053823;28;20045;-26
2023/08/29 08:06:44;;;;;;;3.05;2.25;;;16.50;99.90;;;;;;5054640;28;20102;-26
2023/08/29 08:09:10;;;;;;;5.13;2.95;;;16.60;99.90;;;;;;5053037;28;20394;-26
2023/08/29 08:11:35;;;;;;;2.55;2.20;;;16.60;99.90;;;;;;5019826;28;20055;-27
2023/08/29 08:14:01;;;;;;;4.38;2.08;;;16.70;99.90;;;;;;5052204;28;20051;-26
2023/08/29 08:16:27;;;;;;;3.47;2.38;;;16.70;99.90;;;;;;5053952;28;20098;-26
2023/08/29 08:18:53;;;;;;;2.78;1.88;;;16.80;99.90;;;;;;5053685;28;20124;-26
2023/08/29 08:21:20;;;;;;;3.17;2.08;;;17.00;99.90;;;;;;5052388;28;20090;-26
2023/08/29 08:23:48;;;;;;;4.38;2.17;;;17.00;99.90;;;;;;5053543;28;20085;-27
2023/08/29 08:26:13;;;;;;;3.40;2.33;;;17.10;99.90;;;;;;5036210;28;20123;-26
2023/08/29 08:28:39;;;;;;;2.95;2.30;;;17.30;99.90;;;;;;5052942;28;20048;-26
2023/08/29 08:31:06;;;;;;;4.70;2.10;;;17.40;99.90;;;;;;5053324;28;20063;-27
2023/08/29 08:33:32;;;;;;;2.17;1.98;;;17.50;99.90;;;;;;5036745;28;20049;-26
2023/08/29 08:35:58;;;;;;;3.25;2.15;;;17.60;99.90;;;;;;5052356;28;20055;-26
2023/08/29 08:38:24;;;;;;;2.95;2.50;;;17.70;99.90;;;;;;5052464;28;20037;-28
2023/08/29 08:40:54;;;;;;;4.07;1.85;;;17.80;99.90;;;;;;5053221;28;20137;-27
2023/08/29 08:43:20;;;;;;;1.70;1.38;;;17.80;99.90;;;;;;5053971;28;20048;-27
2023/08/29 08:45:47;;;;;;;3.58;1.58;;;17.90;99.90;;;;;;5052679;28;20076;-27
2023/08/29 08:48:14;;;;;;;1.92;1.10;;;17.90;99.90;;;;;;5035791;28;20041;-27
2023/08/29 08:50:41;;;;;;;1.25;0.80;;;18.00;2.40;;;;;;5052338;28;20051;-28
2023/08/29 08:53:10;;;;;;;2.35;1.00;;;18.00;1.00;;;;;;5052145;28;20049;-27
2023/08/29 08:55:35;;;;;;;1.00;0.80;;;18.20;1.00;;;;;;5052382;28;20106;-27
2023/08/29 08:58:02;;;;;;;0.98;0.60;;;18.20;1.00;;;;;;5053339;28;20127;-28
2023/08/29 09:00:28;;;;;;;2.00;0.90;;;18.20;99.90;;;;;;5053889;28;20104;-27
2023/08/29 09:02:54;;;;;;;3.05;1.13;;;18.30;99.90;;;;;;5053151;28;20507;-27
2023/08/29 09:05:20;;;;;;;1.95;0.98;;;18.30;99.90;;;;;;5052032;28;20049;-27
2023/08/29 09:07:46;;;;;;;1.70;1.08;;;18.40;99.90;;;;;;5052875;28;20410;-27
2023/08/29 09:10:15;;;;;;;2.35;1.20;;;18.40;99.90;;;;;;5053137;28;20053;-27
2023/08/29 09:12:50;;;;;;;1.75;1.05;;;18.60;99.90;;;;;;5053099;28;20055;-27
2023/08/29 09:15:18;;;;;;;2.17;1.20;;;18.70;99.90;;;;;;5053686;28;20041;-27
2023/08/29 09:17:48;;;;;;;1.35;1.00;;;18.80;97.20;;;;;;5053123;28;20041;-27
2023/08/29 09:20:14;;;;;;;2.05;0.90;;;18.70;1.00;;;;;;5053068;28;20055;-27
2023/08/29 09:22:44;;;;;;;1.48;1.00;;;18.80;99.90;;;;;;5055035;28;20045;-27
2023/08/29 09:25:11;;;;;;;0.68;0.47;;;18.70;1.00;;;;;;5055654;28;20045;-27
2023/08/29 09:27:47;;;;;;;0.85;0.47;;;18.60;1.00;;;;;;5055798;28;20067;-27
2023/08/29 09:30:16;;;;;;;1.35;0.73;;;18.60;99.90;;;;;;5057220;28;20418;-27
2023/08/29 09:32:43;;;;;;;1.67;0.90;;;18.50;99.90;;;;;;5057304;28;20140;-28
2023/08/29 09:35:14;;;;;;;2.92;1.27;;;18.70;1.00;;;;;;5055647;28;20045;-27
2023/08/29 09:37:42;;;;;;;2.53;1.13;;;18.80;1.00;;;;;;5055369;28;20107;-27
2023/08/29 09:40:09;;;;;;;1.95;1.55;;;18.90;1.00;;;;;;5057084;28;20132;-27
2023/08/29 09:42:36;;;;;;;3.45;1.50;;;18.80;17.20;;;;;;5055115;28;20095;-27
2023/08/29 09:45:07;;;;;;;3.13;1.80;;;18.70;1.00;;;;;;5038552;28;20143;-27
2023/08/29 09:47:33;;;;;;;2.05;1.40;;;18.80;1.00;;;;;;5039897;28;20128;-27
2023/08/29 09:49:58;;;;;;;4.07;1.23;;;18.90;35.10;;;;;;5056292;28;20131;-27
2023/08/29 09:52:24;;;;;;;2.28;1.38;;;18.90;1.00;;;;;;5056261;28;20473;-27
2023/08/29 09:54:52;;;;;;;2.33;1.23;;;18.90;1.00;;;;;;5056186;28;20102;-27
2023/08/29 09:57:19;;;;;;;3.13;1.50;;;19.00;99.90;;;;;;5039003;28;20048;-27
2023/08/29 09:59:46;;;;;;;2.47;1.63;;;19.10;1.00;;;;;;5056102;28;20517;-27
2023/08/29 10:02:14;;;;;;;4.00;1.80;;;19.20;99.90;;;;;;5056013;28;20047;-27
2023/08/29 10:04:53;;;;;;;2.40;1.85;;;19.50;99.90;;;;;;5054898;28;20040;-27
2023/08/29 10:07:31;;;;;;;3.28;1.75;;;19.60;1.00;;;;;;5056880;28;20135;-27
2023/08/29 10:09:58;;;;;;;3.28;1.60;;;19.80;8.60;;;;;;5054706;28;20059;-27
2023/08/29 10:12:24;;;;;;;3.67;2.05;;;20.10;99.90;;;;;;5055223;28;20040;-28
2023/08/29 10:14:50;;;;;;;2.70;2.17;;;20.00;99.90;;;;;;5054684;28;20041;-27
2023/08/29 10:17:16;;;;;;;3.72;2.83;;;19.80;1.00;;;;;;5055803;28;20056;-27
2023/08/29 10:19:44;;;;;;;4.72;2.92;;;19.90;99.90;;;;;;5055014;28;20049;-28
2023/08/29 10:22:11;;;;;;;3.65;3.35;;;20.10;34.20;;;;;;5054496;28;20493;-27
2023/08/29 10:24:36;;;;;;;5.18;4.00;;;20.40;1.00;;;;;;5055674;28;20407;-28
2023/08/29 10:27:05;;;;;;;5.35;4.40;;;20.50;99.90;;;;;;5054613;28;20048;-27
2023/08/29 10:29:32;;;;;;;7.78;3.80;;;20.40;99.90;;;;;;5055576;28;20052;-27
2023/08/29 10:32:00;;;;;;;3.83;2.97;;;20.20;1.00;;;;;;5053998;28;20053;-28
2023/08/29 10:34:29;;;;;;;3.35;2.85;;;20.10;99.90;;;;;;5054698;28;20084;-28
2023/08/29 10:36:56;;;;;;;3.75;3.05;;;20.10;1.00;;;;;;5055971;28;20095;-27
2023/08/29 10:39:25;;;;;;;3.65;3.00;;;19.90;1.00;;;;;;5037672;28;20475;-27
2023/08/29 10:41:53;;;;;;;3.03;2.22;;;20.10;1.00;;;;;;5054553;28;20059;-27
2023/08/29 10:44:36;;;;;;;3.03;2.08;;;20.30;99.90;;;;;;5055277;28;20459;-28
2023/08/29 10:47:30;;;;;;;2.75;1.98;;;20.70;1.00;;;;;;5055237;28;20049;-27
2023/08/29 10:50:06;;;;;;;2.45;1.60;;;21.00;99.90;;;;;;5054528;28;20084;-26
2023/08/29 10:52:41;;;;;;;1.58;1.48;;;21.30;99.90;;;;;;5055215;28;20044;-27
2023/08/29 10:55:24;;;;;;;1.75;1.50;;;21.80;99.90;;;;;;5055082;28;20048;-27
2023/08/29 10:57:51;;;;;;;6.82;2.80;;;;;;;;;;5055079;28;20052;-27
2023/08/29 11:00:35;;;;;;;3.78;2.08;;;23.40;1.00;;;;;;5054977;28;20057;-27
2023/08/29 11:03:02;;;;;;;3.20;1.98;;;23.70;1.00;;;;;;5054852;28;20183;-27
2023/08/29 11:05:29;;;;;;;2.13;1.65;;;23.50;99.90;;;;;;5053950;28;20056;-27
2023/08/29 11:08:21;;;;;;;3.05;1.58;;;23.40;94.00;;;;;;5054845;28;20166;-27
2023/08/29 11:11:22;;;;;;;3.40;1.65;;;23.30;99.90;;;;;;5050302;28;20487;-27
2023/08/29 11:13:58;;;;;;;3.83;1.10;;;23.50;99.90;;;;;;5054756;28;20048;-27
2023/08/29 11:16:34;;;;;;;2.67;1.30;;;22.80;99.90;;;;;;5054941;28;20057;-28
2023/08/29 11:19:05;;;;;;;2.55;1.13;;;22.30;99.90;;;;;;5054977;28;20049;-27
2023/08/29 11:21:31;;;;;;;3.35;1.30;;;21.90;99.90;;;;;;5055040;28;20047;-27
2023/08/29 11:23:58;;;;;;;3.22;1.40;;;21.70;1.00;;;;;;5054498;28;20052;-27
2023/08/29 11:26:25;;;;;;;2.85;1.20;;;21.60;31.40;;;;;;5053550;28;20060;-27
2023/08/29 11:28:51;;;;;;;2.15;1.40;;;21.40;99.90;;;;;;5054761;28;20175;-27
2023/08/29 11:31:20;;;;;;;2.28;1.52;;;21.30;99.90;;;;;;5053182;28;20144;-28
2023/08/29 11:33:49;;;;;;;1.52;1.23;;;21.20;99.90;;;;;;5054943;28;20442;-27
2023/08/29 11:36:16;;;;;;;2.58;1.58;;;20.90;99.90;;;;;;5054295;28;20102;-27
2023/08/29 11:38:43;;;;;;;3.45;1.58;;;20.90;99.90;;;;;;5037037;28;20056;-27
2023/08/29 11:41:10;;;;;;;2.10;1.70;;;20.80;99.90;;;;;;5054049;28;20056;-27
2023/08/29 11:43:36;;;;;;;2.67;2.00;;;20.80;1.00;;;;;;5054132;28;20049;-28
2023/08/29 11:46:04;;;;;;;2.42;2.08;;;20.90;1.00;;;;;;5054135;28;20041;-28
2023/08/29 11:48:33;;;;;;;2.22;1.60;;;21.00;23.00;;;;;;5054147;28;20045;-27
2023/08/29 11:51:02;;;;;;;2.30;1.70;;;21.00;1.00;;;;;;5053741;28;20487;-27
2023/08/29 11:53:31;;;;;;;3.58;2.20;;;20.80;1.00;;;;;;5052782;28;20044;-27
2023/08/29 11:55:57;;;;;;;3.03;1.83;;;20.70;80.20;;;;;;5053947;28;20091;-27
2023/08/29 11:58:31;;;;;;;3.50;2.22;;;20.60;8.90;;;;;;5053919;28;20059;-27
2023/08/29 12:00:58;;;;;;;3.10;1.80;;;20.70;99.90;;;;;;5053818;28;20049;-27
2023/08/29 12:03:26;;;;;;;2.50;1.60;;;20.90;20.40;;;;;;5053855;28;20045;-27
2023/08/29 12:05:59;;;;;;;2.03;1.58;;;20.70;99.90;;;;;;5036523;28;20106;-27
2023/08/29 12:08:44;;;;;;;2.35;1.85;;;20.60;99.90;;;;;;5052537;28;20475;-27
2023/08/29 12:11:13;;;;;;;3.70;1.85;;;20.60;99.90;;;;;;5054292;28;20041;-27
2023/08/29 12:13:41;;;;;;;1.83;1.58;;;20.80;1.00;;;;;;5053768;28;20528;-28
2023/08/29 12:16:16;;;;;;;2.30;1.67;;;21.20;1.00;;;;;;5052756;28;20049;-27
2023/08/29 12:18:43;;;;;;;3.22;1.83;;;21.50;99.90;;;;;;5052459;28;20453;-27
2023/08/29 12:21:15;;;;;;;1.42;1.10;;;21.70;99.90;;;;;;5054390;28;20151;-27
2023/08/29 12:23:45;;;;;;;2.55;1.48;;;22.00;99.90;;;;;;5052991;28;20070;-27
2023/08/29 12:26:12;;;;;;;4.00;2.15;;;22.00;99.90;;;;;;5053532;28;20487;-27
2023/08/29 12:28:38;;;;;;;2.15;1.70;;;21.90;99.90;;;;;;5053559;28;20052;-27
2023/08/29 12:31:04;;;;;;;1.80;1.50;;;22.10;99.90;;;;;;5052174;28;20072;-28
2023/08/29 12:33:30;;;;;;;5.65;1.67;;;22.20;58.00;;;;;;5053515;28;20052;-28
2023/08/29 12:35:56;;;;;;;3.45;1.50;;;22.50;1.00;;;;;;5053535;28;20124;-28
2023/08/29 12:38:23;;;;;;;3.13;1.60;;;22.60;1.00;;;;;;5053465;28;20045;-28
2023/08/29 12:40:49;;;;;;;1.75;1.30;;;22.40;1.00;;;;;;5035733;28;20056;-27
2023/08/29 12:43:17;;;;;;;2.85;1.60;;;22.40;1.00;;;;;;5053412;28;20056;-28
2023/08/29 12:45:43;;;;;;;2.05;1.60;;;22.40;1.00;;;;;;5052285;28;20398;-28
2023/08/29 12:48:09;;;;;;;3.65;1.52;;;22.40;1.00;;;;;;5019171;28;20055;-29